ZPTAI SBST-SBSC
Flight info
| Callsign | ZPTAI |
|---|---|
| Flight time | N/A |
| Altitude | FL090 |
| Route | UKDAN KEVUN UMBAD |
| Aircraft | C172/L-SC/C |
Departure
| Time | 2026-05-06 23:41 |
|---|---|
| Airport | Santos Nero Moura Air Base / Guarujá Airport (SBST) |
Arrival
| Time | N/A |
|---|---|
| Airport | Santa Cruz Air Force Base (SBSC) |
| Time | Latitude | Longitude | Altitude | Speed | Heading |
|---|---|---|---|---|---|
| 2026-05-06 23:33 | -23.92609 | -46.30521 | 14 ft | 0 kts | 266° |
| 2026-05-06 23:38 | -23.92561 | -46.30497 | 14 ft | 21 kts | 46° |
| 2026-05-06 23:38 | -23.92463 | -46.30461 | 14 ft | 17 kts | 55° |
| 2026-05-06 23:38 | -23.92442 | -46.30424 | 14 ft | 0 kts | 56° |
| 2026-05-06 23:39 | -23.92416 | -46.30384 | 14 ft | 5 kts | 96° |
| 2026-05-06 23:39 | -23.92421 | -46.30379 | 14 ft | 0 kts | 150° |
| 2026-05-06 23:39 | -23.92437 | -46.30368 | 14 ft | 18 kts | 144° |
| 2026-05-06 23:39 | -23.92682 | -46.30186 | 14 ft | 63 kts | 145° |
| 2026-05-06 23:40 | -23.93049 | -46.29917 | 110 ft | 71 kts | 144° |
| 2026-05-06 23:40 | -23.93320 | -46.29725 | 179 ft | 76 kts | 144° |
| 2026-05-06 23:40 | -23.93805 | -46.29389 | 281 ft | 87 kts | 146° |
| 2026-05-06 23:40 | -23.94338 | -46.29019 | 387 ft | 94 kts | 146° |
| 2026-05-06 23:41 | -23.94892 | -46.28633 | 510 ft | 95 kts | 146° |
| 2026-05-06 23:41 | -23.95449 | -46.28250 | 638 ft | 95 kts | 147° |
| 2026-05-06 23:41 | -23.96015 | -46.27871 | 764 ft | 95 kts | 147° |
| 2026-05-06 23:41 | -23.96578 | -46.27494 | 888 ft | 95 kts | 147° |
| 2026-05-06 23:42 | -23.97142 | -46.27116 | 1011 ft | 95 kts | 147° |
| 2026-05-06 23:42 | -23.97705 | -46.26740 | 1134 ft | 95 kts | 147° |
| 2026-05-06 23:42 | -23.98266 | -46.26361 | 1256 ft | 95 kts | 146° |
| 2026-05-06 23:42 | -23.98819 | -46.25976 | 1378 ft | 94 kts | 146° |
| 2026-05-06 23:43 | -23.99371 | -46.25592 | 1500 ft | 94 kts | 146° |
| 2026-05-06 23:43 | -23.99922 | -46.25211 | 1622 ft | 94 kts | 147° |
| 2026-05-06 23:43 | -24.00471 | -46.24833 | 1744 ft | 93 kts | 146° |
| 2026-05-06 23:43 | -24.01017 | -46.24456 | 1866 ft | 93 kts | 147° |
| 2026-05-06 23:44 | -24.01563 | -46.24082 | 1989 ft | 93 kts | 146° |
| 2026-05-06 23:44 | -24.02107 | -46.23711 | 2111 ft | 92 kts | 146° |
| 2026-05-06 23:44 | -24.02644 | -46.23338 | 2233 ft | 92 kts | 146° |
| 2026-05-06 23:44 | -24.03184 | -46.22970 | 2355 ft | 91 kts | 146° |
| 2026-05-06 23:45 | -24.03719 | -46.22600 | 2476 ft | 91 kts | 147° |
| 2026-05-06 23:45 | -24.04253 | -46.22235 | 2598 ft | 91 kts | 146° |
| 2026-05-06 23:45 | -24.04785 | -46.21872 | 2720 ft | 90 kts | 146° |
| 2026-05-06 23:45 | -24.05313 | -46.21506 | 2841 ft | 90 kts | 146° |
| 2026-05-06 23:46 | -24.05839 | -46.21148 | 2962 ft | 89 kts | 146° |
| 2026-05-06 23:46 | -24.06361 | -46.20786 | 3084 ft | 89 kts | 146° |
| 2026-05-06 23:46 | -24.06882 | -46.20426 | 3210 ft | 89 kts | 146° |
| 2026-05-06 23:46 | -24.07403 | -46.20068 | 3339 ft | 89 kts | 146° |
| 2026-05-06 23:47 | -24.07926 | -46.19711 | 3468 ft | 89 kts | 146° |
| 2026-05-06 23:47 | -24.08447 | -46.19352 | 3594 ft | 89 kts | 146° |
| 2026-05-06 23:47 | -24.08972 | -46.18995 | 3716 ft | 89 kts | 147° |
| 2026-05-06 23:47 | -24.09499 | -46.18640 | 3836 ft | 89 kts | 147° |
| 2026-05-06 23:48 | -24.10024 | -46.18282 | 3954 ft | 89 kts | 148° |
| 2026-05-06 23:48 | -24.10554 | -46.17925 | 4074 ft | 90 kts | 148° |
| 2026-05-06 23:48 | -24.11080 | -46.17564 | 4191 ft | 90 kts | 148° |
| 2026-05-06 23:48 | -24.11410 | -46.17021 | 4301 ft | 93 kts | 89° |
| 2026-05-06 23:49 | -24.11131 | -46.16403 | 4462 ft | 90 kts | 61° |
| 2026-05-06 23:49 | -24.10817 | -46.15819 | 4606 ft | 89 kts | 60° |
| 2026-05-06 23:49 | -24.10504 | -46.15237 | 4745 ft | 89 kts | 60° |
| 2026-05-06 23:49 | -24.10195 | -46.14656 | 4885 ft | 88 kts | 59° |
| 2026-05-06 23:50 | -24.09886 | -46.14081 | 5026 ft | 87 kts | 59° |
| 2026-05-06 23:50 | -24.09271 | -46.12948 | 5300 ft | 86 kts | 58° |
| 2026-05-06 23:50 | -24.08961 | -46.12380 | 5417 ft | 88 kts | 61° |
| 2026-05-06 23:51 | -24.08647 | -46.11810 | 5526 ft | 88 kts | 59° |
| 2026-05-06 23:51 | -24.08326 | -46.11236 | 5616 ft | 89 kts | 58° |
| 2026-05-06 23:51 | -24.08004 | -46.10664 | 5721 ft | 88 kts | 58° |
| 2026-05-06 23:51 | -24.07680 | -46.10091 | 5807 ft | 90 kts | 58° |
| 2026-05-06 23:52 | -24.07349 | -46.09504 | 5888 ft | 91 kts | 59° |
| 2026-05-06 23:52 | -24.07019 | -46.08920 | 6000 ft | 90 kts | 58° |
| 2026-05-06 23:52 | -24.06695 | -46.08345 | 6112 ft | 89 kts | 58° |
| 2026-05-06 23:52 | -24.06366 | -46.07779 | 6220 ft | 88 kts | 58° |
| 2026-05-06 23:53 | -24.06043 | -46.07219 | 6336 ft | 87 kts | 57° |
| 2026-05-06 23:53 | -24.05723 | -46.06667 | 6446 ft | 86 kts | 57° |
| 2026-05-06 23:53 | -24.05211 | -46.06369 | 6542 ft | 89 kts | 359° |
| 2026-05-06 23:53 | -24.04607 | -46.06394 | 6665 ft | 88 kts | 2° |
| 2026-05-06 23:54 | -24.03989 | -46.06389 | 6750 ft | 90 kts | 2° |
| 2026-05-06 23:54 | -24.03366 | -46.06384 | 6850 ft | 90 kts | 2° |
| 2026-05-06 23:54 | -24.02745 | -46.06379 | 6949 ft | 89 kts | 2° |
| 2026-05-06 23:54 | -24.02123 | -46.06374 | 7043 ft | 90 kts | 2° |
| 2026-05-06 23:55 | -24.01500 | -46.06369 | 7138 ft | 90 kts | 2° |
| 2026-05-06 23:55 | -24.00879 | -46.06365 | 7233 ft | 90 kts | 2° |
| 2026-05-06 23:55 | -24.00256 | -46.06361 | 7323 ft | 90 kts | 2° |
| 2026-05-06 23:55 | -23.99634 | -46.06357 | 7412 ft | 90 kts | 2° |
| 2026-05-06 23:56 | -23.99012 | -46.06354 | 7506 ft | 89 kts | 2° |
| 2026-05-06 23:56 | -23.98391 | -46.06350 | 7592 ft | 90 kts | 2° |
| 2026-05-06 23:56 | -23.97770 | -46.06348 | 7678 ft | 90 kts | 2° |
| 2026-05-06 23:56 | -23.97150 | -46.06345 | 7772 ft | 89 kts | 2° |
| 2026-05-06 23:57 | -23.96541 | -46.06343 | 7882 ft | 87 kts | 2° |
| 2026-05-06 23:57 | -23.95942 | -46.06341 | 7988 ft | 86 kts | 2° |
| 2026-05-06 23:57 | -23.95343 | -46.06339 | 8086 ft | 86 kts | 2° |
| 2026-05-06 23:57 | -23.94748 | -46.06338 | 8182 ft | 86 kts | 2° |
| 2026-05-06 23:58 | -23.94146 | -46.06336 | 8257 ft | 88 kts | 2° |
| 2026-05-06 23:58 | -23.93531 | -46.06335 | 8322 ft | 89 kts | 2° |
| 2026-05-06 23:58 | -23.92906 | -46.06333 | 8384 ft | 91 kts | 2° |
| 2026-05-06 23:58 | -23.92270 | -46.06331 | 8443 ft | 92 kts | 2° |
| 2026-05-06 23:59 | -23.91627 | -46.06330 | 8500 ft | 93 kts | 2° |
| 2026-05-06 23:59 | -23.90979 | -46.06328 | 8558 ft | 93 kts | 2° |
| 2026-05-06 23:59 | -23.90339 | -46.06327 | 8640 ft | 91 kts | 2° |
| 2026-05-06 23:59 | -23.89709 | -46.06326 | 8716 ft | 90 kts | 2° |
| 2026-05-07 00:00 | -23.89084 | -46.06326 | 8787 ft | 90 kts | 2° |
| 2026-05-07 00:00 | -23.88507 | -46.06325 | 8853 ft | 90 kts | 2° |
| 2026-05-07 00:00 | -23.87885 | -46.06324 | 8925 ft | 89 kts | 2° |
| 2026-05-07 00:00 | -23.87267 | -46.06324 | 8997 ft | 89 kts | 2° |
| 2026-05-07 00:01 | -23.86638 | -46.06323 | 9034 ft | 92 kts | 2° |
| 2026-05-07 00:01 | -23.85982 | -46.06322 | 9044 ft | 97 kts | 2° |
| 2026-05-07 00:01 | -23.85295 | -46.06319 | 9040 ft | 101 kts | 3° |
| 2026-05-07 00:01 | -23.84585 | -46.06316 | 9032 ft | 104 kts | 3° |
| 2026-05-07 00:02 | -23.83861 | -46.06312 | 9027 ft | 105 kts | 3° |
| 2026-05-07 00:02 | -23.83131 | -46.06308 | 9023 ft | 106 kts | 3° |
| 2026-05-07 00:02 | -23.82396 | -46.06304 | 9021 ft | 106 kts | 3° |
| 2026-05-07 00:02 | -23.81662 | -46.06300 | 9020 ft | 106 kts | 3° |
| 2026-05-07 00:03 | -23.80926 | -46.06296 | 9021 ft | 106 kts | 3° |
| 2026-05-07 00:03 | -23.80191 | -46.06292 | 9021 ft | 106 kts | 3° |
| 2026-05-07 00:03 | -23.79457 | -46.06288 | 9021 ft | 106 kts | 3° |
| 2026-05-07 00:03 | -23.78722 | -46.06284 | 9021 ft | 106 kts | 3° |
| 2026-05-07 00:04 | -23.77986 | -46.06280 | 9021 ft | 106 kts | 3° |
| 2026-05-07 00:04 | -23.77251 | -46.06276 | 9022 ft | 106 kts | 3° |
| 2026-05-07 00:04 | -23.76513 | -46.06272 | 9022 ft | 106 kts | 3° |
| 2026-05-07 00:04 | -23.75780 | -46.06268 | 9022 ft | 106 kts | 3° |
| 2026-05-07 00:05 | -23.75044 | -46.06264 | 9023 ft | 106 kts | 3° |
| 2026-05-07 00:05 | -23.74307 | -46.06260 | 9023 ft | 106 kts | 3° |
| 2026-05-07 00:05 | -23.73571 | -46.06263 | 9024 ft | 106 kts | 2° |
| 2026-05-07 00:05 | -23.72834 | -46.06264 | 9024 ft | 106 kts | 2° |
| 2026-05-07 00:06 | -23.72101 | -46.06272 | 9046 ft | 105 kts | 2° |
| 2026-05-07 00:06 | -23.71374 | -46.06281 | 9061 ft | 105 kts | 2° |
| 2026-05-07 00:06 | -23.70645 | -46.06289 | 9069 ft | 105 kts | 2° |
| 2026-05-07 00:06 | -23.69911 | -46.06296 | 9074 ft | 106 kts | 2° |
| 2026-05-07 00:07 | -23.69174 | -46.06303 | 9076 ft | 107 kts | 2° |
| 2026-05-07 00:07 | -23.68432 | -46.06310 | 9079 ft | 107 kts | 2° |
| 2026-05-07 00:07 | -23.67688 | -46.06316 | 9080 ft | 107 kts | 2° |
| 2026-05-07 00:07 | -23.66941 | -46.06321 | 9081 ft | 108 kts | 2° |
| 2026-05-07 00:08 | -23.66192 | -46.06327 | 9082 ft | 108 kts | 2° |
| 2026-05-07 00:08 | -23.65443 | -46.06332 | 9083 ft | 108 kts | 2° |
| 2026-05-07 00:08 | -23.64693 | -46.06332 | 9084 ft | 108 kts | 2° |
| 2026-05-07 00:08 | -23.63942 | -46.06332 | 9084 ft | 108 kts | 2° |
| 2026-05-07 00:09 | -23.63190 | -46.06336 | 9084 ft | 108 kts | 2° |
| 2026-05-07 00:09 | -23.62438 | -46.06336 | 9083 ft | 108 kts | 2° |
| 2026-05-07 00:09 | -23.61684 | -46.06339 | 9083 ft | 108 kts | 2° |
| 2026-05-07 00:09 | -23.60932 | -46.06337 | 9083 ft | 109 kts | 2° |
| 2026-05-07 00:10 | -23.60178 | -46.06339 | 9082 ft | 109 kts | 2° |
| 2026-05-07 00:10 | -23.59425 | -46.06340 | 9082 ft | 109 kts | 2° |
| 2026-05-07 00:10 | -23.58671 | -46.06339 | 9082 ft | 109 kts | 2° |
| 2026-05-07 00:10 | -23.57917 | -46.06341 | 9082 ft | 109 kts | 2° |
| 2026-05-07 00:11 | -23.57163 | -46.06341 | 9082 ft | 109 kts | 2° |
| 2026-05-07 00:11 | -23.56411 | -46.06340 | 9081 ft | 109 kts | 2° |
| 2026-05-07 00:11 | -23.55721 | -46.06116 | 9069 ft | 104 kts | 50° |
| 2026-05-07 00:11 | -23.55462 | -46.05421 | 9121 ft | 98 kts | 75° |
| 2026-05-07 00:12 | -23.55264 | -46.04703 | 9133 ft | 99 kts | 76° |
| 2026-05-07 00:12 | -23.55067 | -46.03984 | 9154 ft | 100 kts | 76° |
| 2026-05-07 00:12 | -23.54869 | -46.03258 | 9159 ft | 101 kts | 76° |
| 2026-05-07 00:12 | -23.54667 | -46.02521 | 9158 ft | 102 kts | 76° |
| 2026-05-07 00:13 | -23.54463 | -46.01775 | 9155 ft | 103 kts | 76° |
| 2026-05-07 00:13 | -23.54258 | -46.01023 | 9153 ft | 104 kts | 76° |
| 2026-05-07 00:13 | -23.54052 | -46.00269 | 9152 ft | 104 kts | 76° |
| 2026-05-07 00:13 | -23.53846 | -45.99514 | 9152 ft | 104 kts | 76° |
| 2026-05-07 00:14 | -23.53640 | -45.98760 | 9151 ft | 104 kts | 76° |
| 2026-05-07 00:14 | -23.53434 | -45.98003 | 9152 ft | 104 kts | 76° |
| 2026-05-07 00:14 | -23.53228 | -45.97249 | 9152 ft | 104 kts | 76° |
| 2026-05-07 00:14 | -23.53021 | -45.96492 | 9153 ft | 104 kts | 76° |
| 2026-05-07 00:15 | -23.52815 | -45.95738 | 9153 ft | 104 kts | 76° |
| 2026-05-07 00:15 | -23.52608 | -45.94982 | 9153 ft | 104 kts | 76° |
| 2026-05-07 00:15 | -23.52402 | -45.94226 | 9154 ft | 104 kts | 76° |
| 2026-05-07 00:15 | -23.52196 | -45.93472 | 9152 ft | 105 kts | 76° |
| 2026-05-07 00:16 | -23.51986 | -45.92708 | 9144 ft | 105 kts | 76° |
| 2026-05-07 00:16 | -23.51776 | -45.91945 | 9142 ft | 106 kts | 76° |
| 2026-05-07 00:16 | -23.51566 | -45.91181 | 9142 ft | 106 kts | 76° |
| 2026-05-07 00:16 | -23.51356 | -45.90418 | 9143 ft | 105 kts | 76° |
| 2026-05-07 00:17 | -23.51146 | -45.89655 | 9145 ft | 105 kts | 76° |
| 2026-05-07 00:17 | -23.50935 | -45.88892 | 9146 ft | 105 kts | 76° |
| 2026-05-07 00:17 | -23.50725 | -45.88129 | 9147 ft | 106 kts | 76° |
| 2026-05-07 00:17 | -23.50514 | -45.87365 | 9148 ft | 106 kts | 76° |
| 2026-05-07 00:18 | -23.50304 | -45.86600 | 9150 ft | 106 kts | 76° |
| 2026-05-07 00:18 | -23.50093 | -45.85835 | 9151 ft | 106 kts | 76° |
| 2026-05-07 00:18 | -23.49882 | -45.85069 | 9152 ft | 106 kts | 76° |
| 2026-05-07 00:18 | -23.49671 | -45.84302 | 9153 ft | 106 kts | 76° |
| 2026-05-07 00:19 | -23.49459 | -45.83534 | 9154 ft | 106 kts | 76° |
| 2026-05-07 00:19 | -23.49247 | -45.82766 | 9154 ft | 106 kts | 76° |
| 2026-05-07 00:19 | -23.49036 | -45.81998 | 9155 ft | 106 kts | 76° |
| 2026-05-07 00:19 | -23.48824 | -45.81228 | 9157 ft | 106 kts | 76° |
| 2026-05-07 00:20 | -23.48613 | -45.80461 | 9158 ft | 106 kts | 76° |
| 2026-05-07 00:20 | -23.48401 | -45.79691 | 9158 ft | 106 kts | 76° |
| 2026-05-07 00:20 | -23.48189 | -45.78922 | 9158 ft | 106 kts | 76° |
| 2026-05-07 00:20 | -23.47977 | -45.78152 | 9158 ft | 106 kts | 76° |
| 2026-05-07 00:21 | -23.47767 | -45.77390 | 9151 ft | 107 kts | 76° |
| 2026-05-07 00:21 | -23.47549 | -45.76591 | 9067 ft | 113 kts | 76° |
| 2026-05-07 00:21 | -23.47315 | -45.75769 | 9012 ft | 114 kts | 75° |
| 2026-05-07 00:21 | -23.47079 | -45.74952 | 8993 ft | 112 kts | 75° |
| 2026-05-07 00:22 | -23.46856 | -45.74151 | 8990 ft | 110 kts | 76° |
| 2026-05-07 00:22 | -23.46641 | -45.73365 | 8993 ft | 108 kts | 76° |
| 2026-05-07 00:22 | -23.46427 | -45.72586 | 8989 ft | 107 kts | 76° |
| 2026-05-07 00:22 | -23.46214 | -45.71809 | 8987 ft | 107 kts | 76° |
| 2026-05-07 00:23 | -23.46001 | -45.71035 | 8986 ft | 107 kts | 76° |
| 2026-05-07 00:23 | -23.45790 | -45.70265 | 8985 ft | 106 kts | 76° |
| 2026-05-07 00:23 | -23.45575 | -45.69492 | 8968 ft | 108 kts | 75° |
| 2026-05-07 00:23 | -23.45350 | -45.68718 | 8956 ft | 108 kts | 75° |
| 2026-05-07 00:24 | -23.45125 | -45.67944 | 8953 ft | 107 kts | 75° |
| 2026-05-07 00:24 | -23.44906 | -45.67172 | 8952 ft | 107 kts | 76° |
| 2026-05-07 00:24 | -23.44693 | -45.66405 | 8954 ft | 106 kts | 75° |
| 2026-05-07 00:24 | -23.44478 | -45.65640 | 8955 ft | 106 kts | 76° |
| 2026-05-07 00:25 | -23.44266 | -45.64875 | 8956 ft | 106 kts | 75° |
| 2026-05-07 00:25 | -23.44047 | -45.64110 | 8956 ft | 106 kts | 76° |
| 2026-05-07 00:25 | -23.43827 | -45.63349 | 8956 ft | 106 kts | 75° |
| 2026-05-07 00:25 | -23.43611 | -45.62583 | 8956 ft | 106 kts | 75° |
| 2026-05-07 00:26 | -23.43402 | -45.61859 | 8956 ft | 106 kts | 76° |
| 2026-05-07 00:26 | -23.43173 | -45.61057 | 8956 ft | 106 kts | 76° |
| 2026-05-07 00:26 | -23.42954 | -45.60292 | 8956 ft | 106 kts | 75° |
| 2026-05-07 00:26 | -23.42738 | -45.59528 | 8956 ft | 106 kts | 76° |
| 2026-05-07 00:27 | -23.42517 | -45.58764 | 8956 ft | 106 kts | 75° |
| 2026-05-07 00:27 | -23.42300 | -45.58000 | 8956 ft | 106 kts | 76° |
| 2026-05-07 00:27 | -23.42080 | -45.57237 | 8959 ft | 106 kts | 75° |
| 2026-05-07 00:27 | -23.41868 | -45.56489 | 8960 ft | 106 kts | 75° |
| 2026-05-07 00:28 | -23.41657 | -45.55763 | 8960 ft | 106 kts | 75° |
| 2026-05-07 00:28 | -23.41437 | -45.54991 | 8961 ft | 106 kts | 75° |
| 2026-05-07 00:28 | -23.41225 | -45.54235 | 8986 ft | 104 kts | 76° |
| 2026-05-07 00:28 | -23.41096 | -45.53767 | 8995 ft | 104 kts | 76° |
| 2026-05-07 00:29 | -23.40939 | -45.53204 | 9001 ft | 104 kts | 75° |
| 2026-05-07 00:29 | -23.40789 | -45.52689 | 9003 ft | 105 kts | 75° |
| 2026-05-07 00:30 | -23.40166 | -45.50557 | 8999 ft | 106 kts | 76° |
| 2026-05-07 00:30 | -23.39947 | -45.49793 | 8998 ft | 106 kts | 75° |
| 2026-05-07 00:30 | -23.39729 | -45.49028 | 8996 ft | 106 kts | 75° |
| 2026-05-07 00:30 | -23.39507 | -45.48264 | 8995 ft | 106 kts | 75° |
| 2026-05-07 00:31 | -23.39287 | -45.47500 | 8994 ft | 106 kts | 75° |
| 2026-05-07 00:31 | -23.39064 | -45.46737 | 8993 ft | 106 kts | 75° |
| 2026-05-07 00:31 | -23.38842 | -45.45970 | 8967 ft | 107 kts | 75° |
| 2026-05-07 00:31 | -23.38619 | -45.45195 | 8952 ft | 107 kts | 75° |
| 2026-05-07 00:32 | -23.38397 | -45.44426 | 8947 ft | 106 kts | 75° |
| 2026-05-07 00:32 | -23.38177 | -45.43665 | 8947 ft | 105 kts | 75° |
| 2026-05-07 00:32 | -23.37958 | -45.42907 | 8949 ft | 105 kts | 75° |
| 2026-05-07 00:32 | -23.37740 | -45.42154 | 8956 ft | 104 kts | 75° |
| 2026-05-07 00:33 | -23.37530 | -45.41408 | 8969 ft | 103 kts | 75° |
| 2026-05-07 00:33 | -23.37314 | -45.40661 | 8974 ft | 104 kts | 75° |
| 2026-05-07 00:33 | -23.37099 | -45.39913 | 8974 ft | 104 kts | 75° |
| 2026-05-07 00:33 | -23.36882 | -45.39163 | 8973 ft | 104 kts | 75° |
| 2026-05-07 00:34 | -23.36665 | -45.38410 | 8971 ft | 105 kts | 75° |
| 2026-05-07 00:34 | -23.36450 | -45.37656 | 8970 ft | 105 kts | 75° |
| 2026-05-07 00:34 | -23.36233 | -45.36902 | 8969 ft | 105 kts | 76° |
| 2026-05-07 00:34 | -23.36017 | -45.36148 | 8969 ft | 105 kts | 75° |
| 2026-05-07 00:35 | -23.35801 | -45.35395 | 8969 ft | 105 kts | 76° |
| 2026-05-07 00:35 | -23.35586 | -45.34642 | 8970 ft | 104 kts | 75° |
| 2026-05-07 00:35 | -23.35369 | -45.33890 | 8969 ft | 104 kts | 75° |
| 2026-05-07 00:35 | -23.35155 | -45.33136 | 8968 ft | 104 kts | 75° |
| 2026-05-07 00:36 | -23.34939 | -45.32385 | 8968 ft | 104 kts | 75° |
| 2026-05-07 00:36 | -23.34739 | -45.31629 | 8965 ft | 104 kts | 84° |
| 2026-05-07 00:36 | -23.34917 | -45.30900 | 9000 ft | 98 kts | 112° |
| 2026-05-07 00:36 | -23.35155 | -45.30195 | 8986 ft | 101 kts | 111° |
| 2026-05-07 00:37 | -23.35395 | -45.29470 | 8975 ft | 102 kts | 111° |
| 2026-05-07 00:37 | -23.35636 | -45.28743 | 8969 ft | 103 kts | 111° |
| 2026-05-07 00:37 | -23.35877 | -45.28014 | 8967 ft | 102 kts | 111° |
| 2026-05-07 00:37 | -23.36118 | -45.27287 | 8966 ft | 102 kts | 111° |
| 2026-05-07 00:38 | -23.36358 | -45.26561 | 8966 ft | 102 kts | 111° |
| 2026-05-07 00:38 | -23.36598 | -45.25835 | 8966 ft | 102 kts | 111° |
| 2026-05-07 00:38 | -23.36838 | -45.25111 | 8966 ft | 102 kts | 111° |
| 2026-05-07 00:38 | -23.37072 | -45.24392 | 9000 ft | 99 kts | 110° |
| 2026-05-07 00:39 | -23.37297 | -45.23689 | 9014 ft | 99 kts | 110° |
| 2026-05-07 00:39 | -23.37529 | -45.22970 | 8989 ft | 102 kts | 110° |
| 2026-05-07 00:39 | -23.37772 | -45.22231 | 8947 ft | 105 kts | 110° |
| 2026-05-07 00:39 | -23.38018 | -45.21483 | 8929 ft | 105 kts | 109° |
| 2026-05-07 00:40 | -23.38254 | -45.20736 | 8920 ft | 104 kts | 109° |
| 2026-05-07 00:40 | -23.38488 | -45.19995 | 8919 ft | 103 kts | 109° |
| 2026-05-07 00:40 | -23.38720 | -45.19261 | 8921 ft | 103 kts | 109° |
| 2026-05-07 00:40 | -23.38950 | -45.18530 | 8923 ft | 102 kts | 109° |
| 2026-05-07 00:41 | -23.39180 | -45.17799 | 8923 ft | 102 kts | 109° |
| 2026-05-07 00:41 | -23.39409 | -45.17071 | 8924 ft | 102 kts | 109° |
| 2026-05-07 00:41 | -23.39637 | -45.16345 | 8924 ft | 102 kts | 109° |
| 2026-05-07 00:41 | -23.39866 | -45.15617 | 8924 ft | 102 kts | 109° |
| 2026-05-07 00:42 | -23.40094 | -45.14890 | 8924 ft | 102 kts | 109° |
| 2026-05-07 00:42 | -23.40323 | -45.14161 | 8924 ft | 102 kts | 109° |
| 2026-05-07 00:42 | -23.40551 | -45.13434 | 8924 ft | 102 kts | 109° |
| 2026-05-07 00:42 | -23.40779 | -45.12707 | 8924 ft | 102 kts | 109° |
| 2026-05-07 00:43 | -23.41007 | -45.11979 | 8924 ft | 102 kts | 109° |
| 2026-05-07 00:43 | -23.41235 | -45.11251 | 8923 ft | 102 kts | 109° |
| 2026-05-07 00:43 | -23.41465 | -45.10522 | 8920 ft | 102 kts | 109° |
| 2026-05-07 00:43 | -23.41694 | -45.09794 | 8919 ft | 102 kts | 109° |
| 2026-05-07 00:44 | -23.41923 | -45.09066 | 8920 ft | 102 kts | 109° |
| 2026-05-07 00:44 | -23.42152 | -45.08338 | 8920 ft | 102 kts | 109° |
| 2026-05-07 00:44 | -23.42381 | -45.07611 | 8920 ft | 102 kts | 109° |
| 2026-05-07 00:44 | -23.42611 | -45.06883 | 8920 ft | 102 kts | 109° |
| 2026-05-07 00:45 | -23.42841 | -45.06156 | 8920 ft | 102 kts | 109° |
| 2026-05-07 00:45 | -23.43072 | -45.05428 | 8919 ft | 102 kts | 109° |
| 2026-05-07 00:45 | -23.43303 | -45.04700 | 8919 ft | 102 kts | 109° |
| 2026-05-07 00:45 | -23.43535 | -45.03973 | 8919 ft | 102 kts | 109° |
| 2026-05-07 00:46 | -23.43768 | -45.03245 | 8918 ft | 102 kts | 109° |
| 2026-05-07 00:46 | -23.44003 | -45.02517 | 8918 ft | 102 kts | 109° |